sensor_id;sensor_type;location;lat;lon;timestamp;pressure;altitude;pressure_sealevel;temperature
65569;BMP180;52211;50.154;8.682;2023-05-10T00:00:19;99272.00;;;20.10
65569;BMP180;52211;50.154;8.682;2023-05-10T00:02:49;99264.00;;;19.90
65569;BMP180;52211;50.154;8.682;2023-05-10T00:05:23;99268.00;;;19.80
65569;BMP180;52211;50.154;8.682;2023-05-10T00:07:54;99265.00;;;19.70
65569;BMP180;52211;50.154;8.682;2023-05-10T00:10:23;99269.00;;;19.60
65569;BMP180;52211;50.154;8.682;2023-05-10T00:12:53;99267.00;;;19.50
65569;BMP180;52211;50.154;8.682;2023-05-10T00:15:27;99267.00;;;19.50
65569;BMP180;52211;50.154;8.682;2023-05-10T00:17:57;99265.00;;;19.50
65569;BMP180;52211;50.154;8.682;2023-05-10T00:20:26;99268.00;;;19.40
65569;BMP180;52211;50.154;8.682;2023-05-10T00:22:55;99268.00;;;19.40
65569;BMP180;52211;50.154;8.682;2023-05-10T00:25:24;99266.00;;;19.40
65569;BMP180;52211;50.154;8.682;2023-05-10T00:27:53;99269.00;;;19.40
65569;BMP180;52211;50.154;8.682;2023-05-10T00:30:24;99278.00;;;19.40
65569;BMP180;52211;50.154;8.682;2023-05-10T00:32:53;99272.00;;;19.40
65569;BMP180;52211;50.154;8.682;2023-05-10T00:35:20;99270.00;;;19.40
65569;BMP180;52211;50.154;8.682;2023-05-10T00:37:55;99272.00;;;19.30
65569;BMP180;52211;50.154;8.682;2023-05-10T00:40:24;99271.00;;;19.40
65569;BMP180;52211;50.154;8.682;2023-05-10T00:43:01;99275.00;;;19.30
65569;BMP180;52211;50.154;8.682;2023-05-10T00:45:29;99272.00;;;19.30
65569;BMP180;52211;50.154;8.682;2023-05-10T00:48:05;99282.00;;;19.30
65569;BMP180;52211;50.154;8.682;2023-05-10T00:50:37;99275.00;;;19.30
65569;BMP180;52211;50.154;8.682;2023-05-10T00:53:08;99283.00;;;19.20
65569;BMP180;52211;50.154;8.682;2023-05-10T00:55:36;99285.00;;;19.20
65569;BMP180;52211;50.154;8.682;2023-05-10T00:58:09;99286.00;;;19.20
65569;BMP180;52211;50.154;8.682;2023-05-10T01:00:41;99285.00;;;19.20
65569;BMP180;52211;50.154;8.682;2023-05-10T01:03:12;99290.00;;;19.20
65569;BMP180;52211;50.154;8.682;2023-05-10T01:05:42;99290.00;;;19.10
65569;BMP180;52211;50.154;8.682;2023-05-10T01:08:09;99296.00;;;19.10
65569;BMP180;52211;50.154;8.682;2023-05-10T01:10:36;99293.00;;;19.10
65569;BMP180;52211;50.154;8.682;2023-05-10T01:13:05;99298.00;;;19.10
65569;BMP180;52211;50.154;8.682;2023-05-10T01:15:37;99296.00;;;19.10
65569;BMP180;52211;50.154;8.682;2023-05-10T01:18:08;99291.00;;;19.10
65569;BMP180;52211;50.154;8.682;2023-05-10T01:20:43;99289.00;;;19.00
65569;BMP180;52211;50.154;8.682;2023-05-10T01:27:12;99297.00;;;19.00
65569;BMP180;52211;50.154;8.682;2023-05-10T01:30:31;99294.00;;;18.90
65569;BMP180;52211;50.154;8.682;2023-05-10T01:33:19;99300.00;;;18.90
65569;BMP180;52211;50.154;8.682;2023-05-10T01:47:17;99319.00;;;18.80
65569;BMP180;52211;50.154;8.682;2023-05-10T01:49:59;99330.00;;;18.80
65569;BMP180;52211;50.154;8.682;2023-05-10T01:52:39;99325.00;;;18.80
65569;BMP180;52211;50.154;8.682;2023-05-10T01:55:20;99326.00;;;18.70
65569;BMP180;52211;50.154;8.682;2023-05-10T01:57:58;99328.00;;;18.70
65569;BMP180;52211;50.154;8.682;2023-05-10T02:00:33;99331.00;;;18.70
65569;BMP180;52211;50.154;8.682;2023-05-10T02:03:07;99324.00;;;18.80
65569;BMP180;52211;50.154;8.682;2023-05-10T02:05:41;99326.00;;;18.80
65569;BMP180;52211;50.154;8.682;2023-05-10T02:08:15;99332.00;;;18.80
65569;BMP180;52211;50.154;8.682;2023-05-10T02:10:46;99330.00;;;18.80
65569;BMP180;52211;50.154;8.682;2023-05-10T02:13:16;99337.00;;;18.80
65569;BMP180;52211;50.154;8.682;2023-05-10T02:15:46;99333.00;;;18.80
65569;BMP180;52211;50.154;8.682;2023-05-10T02:18:15;99329.00;;;18.80
65569;BMP180;52211;50.154;8.682;2023-05-10T02:20:45;99328.00;;;18.80
65569;BMP180;52211;50.154;8.682;2023-05-10T02:23:17;99338.00;;;18.90
65569;BMP180;52211;50.154;8.682;2023-05-10T02:25:47;99333.00;;;18.90
65569;BMP180;52211;50.154;8.682;2023-05-10T02:28:15;99338.00;;;18.90
65569;BMP180;52211;50.154;8.682;2023-05-10T02:30:46;99345.00;;;18.90
65569;BMP180;52211;50.154;8.682;2023-05-10T02:33:19;99348.00;;;18.90
65569;BMP180;52211;50.154;8.682;2023-05-10T02:35:47;99347.00;;;18.90
65569;BMP180;52211;50.154;8.682;2023-05-10T02:38:17;99349.00;;;18.90
65569;BMP180;52211;50.154;8.682;2023-05-10T02:40:47;99351.00;;;18.80
65569;BMP180;52211;50.154;8.682;2023-05-10T02:43:25;99364.00;;;18.80
65569;BMP180;52211;50.154;8.682;2023-05-10T02:45:55;99361.00;;;18.80
65569;BMP180;52211;50.154;8.682;2023-05-10T02:48:24;99358.00;;;18.80
65569;BMP180;52211;50.154;8.682;2023-05-10T02:50:56;99355.00;;;18.70
65569;BMP180;52211;50.154;8.682;2023-05-10T02:53:31;99360.00;;;18.70
65569;BMP180;52211;50.154;8.682;2023-05-10T02:56:05;99363.00;;;18.70
65569;BMP180;52211;50.154;8.682;2023-05-10T02:58:36;99356.00;;;18.70
65569;BMP180;52211;50.154;8.682;2023-05-10T03:01:06;99358.00;;;18.70
65569;BMP180;52211;50.154;8.682;2023-05-10T03:03:37;99364.00;;;18.70
65569;BMP180;52211;50.154;8.682;2023-05-10T03:06:06;99361.00;;;18.70
65569;BMP180;52211;50.154;8.682;2023-05-10T03:08:36;99365.00;;;18.70
65569;BMP180;52211;50.154;8.682;2023-05-10T03:11:21;99362.00;;;18.60
65569;BMP180;52211;50.154;8.682;2023-05-10T03:14:21;99365.00;;;18.60
65569;BMP180;52211;50.154;8.682;2023-05-10T03:17:23;99365.00;;;18.60
65569;BMP180;52211;50.154;8.682;2023-05-10T03:20:04;99359.00;;;18.70
65569;BMP180;52211;50.154;8.682;2023-05-10T03:22:51;99361.00;;;18.70
65569;BMP180;52211;50.154;8.682;2023-05-10T03:25:21;99368.00;;;18.70
65569;BMP180;52211;50.154;8.682;2023-05-10T03:27:52;99372.00;;;18.70
65569;BMP180;52211;50.154;8.682;2023-05-10T03:30:23;99373.00;;;18.70
65569;BMP180;52211;50.154;8.682;2023-05-10T03:32:51;99379.00;;;18.70
65569;BMP180;52211;50.154;8.682;2023-05-10T03:35:18;99374.00;;;18.70
65569;BMP180;52211;50.154;8.682;2023-05-10T03:37:48;99376.00;;;18.70
65569;BMP180;52211;50.154;8.682;2023-05-10T03:40:15;99371.00;;;18.70
65569;BMP180;52211;50.154;8.682;2023-05-10T03:42:45;99377.00;;;18.70
65569;BMP180;52211;50.154;8.682;2023-05-10T03:45:16;99383.00;;;18.70
65569;BMP180;52211;50.154;8.682;2023-05-10T03:47:43;99384.00;;;18.70
65569;BMP180;52211;50.154;8.682;2023-05-10T03:50:10;99384.00;;;18.70
65569;BMP180;52211;50.154;8.682;2023-05-10T03:52:40;99386.00;;;18.70
65569;BMP180;52211;50.154;8.682;2023-05-10T03:55:07;99389.00;;;18.60
65569;BMP180;52211;50.154;8.682;2023-05-10T03:57:37;99394.00;;;18.60
65569;BMP180;52211;50.154;8.682;2023-05-10T04:00:09;99392.00;;;18.60
65569;BMP180;52211;50.154;8.682;2023-05-10T04:02:42;99387.00;;;18.60
65569;BMP180;52211;50.154;8.682;2023-05-10T04:05:18;99388.00;;;18.60
65569;BMP180;52211;50.154;8.682;2023-05-10T04:07:50;99387.00;;;18.60
65569;BMP180;52211;50.154;8.682;2023-05-10T04:10:20;99386.00;;;18.70
65569;BMP180;52211;50.154;8.682;2023-05-10T04:12:47;99390.00;;;18.70
65569;BMP180;52211;50.154;8.682;2023-05-10T04:15:19;99392.00;;;18.70
65569;BMP180;52211;50.154;8.682;2023-05-10T04:17:49;99384.00;;;18.70
65569;BMP180;52211;50.154;8.682;2023-05-10T04:20:17;99388.00;;;18.70
65569;BMP180;52211;50.154;8.682;2023-05-10T04:22:44;99383.00;;;18.70
65569;BMP180;52211;50.154;8.682;2023-05-10T04:25:11;99385.00;;;18.70
65569;BMP180;52211;50.154;8.682;2023-05-10T04:27:40;99389.00;;;18.70
65569;BMP180;52211;50.154;8.682;2023-05-10T04:30:07;99388.00;;;18.70
65569;BMP180;52211;50.154;8.682;2023-05-10T04:32:34;99397.00;;;18.70
65569;BMP180;52211;50.154;8.682;2023-05-10T04:35:04;99395.00;;;18.70
65569;BMP180;52211;50.154;8.682;2023-05-10T04:37:33;99392.00;;;18.70
65569;BMP180;52211;50.154;8.682;2023-05-10T04:40:03;99394.00;;;18.70
65569;BMP180;52211;50.154;8.682;2023-05-10T04:42:30;99404.00;;;18.70
65569;BMP180;52211;50.154;8.682;2023-05-10T04:44:59;99405.00;;;18.70
65569;BMP180;52211;50.154;8.682;2023-05-10T04:47:28;99405.00;;;18.80
65569;BMP180;52211;50.154;8.682;2023-05-10T04:49:55;99406.00;;;18.80
65569;BMP180;52211;50.154;8.682;2023-05-10T04:52:22;99413.00;;;18.80
65569;BMP180;52211;50.154;8.682;2023-05-10T04:54:49;99409.00;;;18.80
65569;BMP180;52211;50.154;8.682;2023-05-10T04:57:18;99410.00;;;18.80
65569;BMP180;52211;50.154;8.682;2023-05-10T04:59:45;99417.00;;;18.80
65569;BMP180;52211;50.154;8.682;2023-05-10T05:02:19;99418.00;;;18.80
65569;BMP180;52211;50.154;8.682;2023-05-10T05:04:47;99417.00;;;18.80
65569;BMP180;52211;50.154;8.682;2023-05-10T05:07:16;99420.00;;;18.90
65569;BMP180;52211;50.154;8.682;2023-05-10T05:09:43;99416.00;;;18.90
65569;BMP180;52211;50.154;8.682;2023-05-10T05:12:10;99415.00;;;18.90
65569;BMP180;52211;50.154;8.682;2023-05-10T05:14:43;99424.00;;;18.90
65569;BMP180;52211;50.154;8.682;2023-05-10T05:17:10;99417.00;;;18.90
65569;BMP180;52211;50.154;8.682;2023-05-10T05:19:42;99416.00;;;18.90
65569;BMP180;52211;50.154;8.682;2023-05-10T05:22:11;99424.00;;;18.90
65569;BMP180;52211;50.154;8.682;2023-05-10T05:24:41;99424.00;;;18.90
65569;BMP180;52211;50.154;8.682;2023-05-10T05:27:10;99429.00;;;18.90
65569;BMP180;52211;50.154;8.682;2023-05-10T05:29:39;99428.00;;;19.00
65569;BMP180;52211;50.154;8.682;2023-05-10T05:32:06;99431.00;;;19.00
65569;BMP180;52211;50.154;8.682;2023-05-10T05:34:37;99433.00;;;19.00
65569;BMP180;52211;50.154;8.682;2023-05-10T05:37:06;99428.00;;;19.00
65569;BMP180;52211;50.154;8.682;2023-05-10T05:39:36;99432.00;;;19.00
65569;BMP180;52211;50.154;8.682;2023-05-10T05:42:05;99438.00;;;19.00
65569;BMP180;52211;50.154;8.682;2023-05-10T05:44:32;99438.00;;;19.00
65569;BMP180;52211;50.154;8.682;2023-05-10T05:47:01;99434.00;;;19.00
65569;BMP180;52211;50.154;8.682;2023-05-10T05:49:33;99443.00;;;19.00
65569;BMP180;52211;50.154;8.682;2023-05-10T05:52:01;99451.00;;;19.00
65569;BMP180;52211;50.154;8.682;2023-05-10T05:54:31;99445.00;;;19.00
65569;BMP180;52211;50.154;8.682;2023-05-10T05:57:00;99448.00;;;19.00
65569;BMP180;52211;50.154;8.682;2023-05-10T05:59:27;99454.00;;;19.10
65569;BMP180;52211;50.154;8.682;2023-05-10T06:01:57;99458.00;;;19.10
65569;BMP180;52211;50.154;8.682;2023-05-10T06:04:24;99462.00;;;19.10
65569;BMP180;52211;50.154;8.682;2023-05-10T06:06:51;99461.00;;;19.10
65569;BMP180;52211;50.154;8.682;2023-05-10T06:09:21;99468.00;;;19.10
65569;BMP180;52211;50.154;8.682;2023-05-10T06:11:47;99467.00;;;19.10
65569;BMP180;52211;50.154;8.682;2023-05-10T06:14:19;99468.00;;;19.10
65569;BMP180;52211;50.154;8.682;2023-05-10T06:16:48;99468.00;;;19.10
65569;BMP180;52211;50.154;8.682;2023-05-10T06:19:18;99476.00;;;19.20
65569;BMP180;52211;50.154;8.682;2023-05-10T06:21:47;99469.00;;;19.20
65569;BMP180;52211;50.154;8.682;2023-05-10T06:24:16;99476.00;;;19.20
65569;BMP180;52211;50.154;8.682;2023-05-10T06:26:43;99476.00;;;19.20
65569;BMP180;52211;50.154;8.682;2023-05-10T06:29:12;99479.00;;;19.20
65569;BMP180;52211;50.154;8.682;2023-05-10T06:31:41;99480.00;;;19.30
65569;BMP180;52211;50.154;8.682;2023-05-10T06:34:08;99485.00;;;19.30
65569;BMP180;52211;50.154;8.682;2023-05-10T06:36:35;99487.00;;;19.30
65569;BMP180;52211;50.154;8.682;2023-05-10T06:39:05;99485.00;;;19.30
65569;BMP180;52211;50.154;8.682;2023-05-10T06:41:34;99492.00;;;19.30
65569;BMP180;52211;50.154;8.682;2023-05-10T06:44:03;99484.00;;;19.30
65569;BMP180;52211;50.154;8.682;2023-05-10T06:46:35;99490.00;;;19.40
65569;BMP180;52211;50.154;8.682;2023-05-10T06:49:04;99488.00;;;19.40
65569;BMP180;52211;50.154;8.682;2023-05-10T06:51:34;99490.00;;;19.40
65569;BMP180;52211;50.154;8.682;2023-05-10T06:54:03;99490.00;;;19.40
65569;BMP180;52211;50.154;8.682;2023-05-10T06:56:32;99489.00;;;19.50
65569;BMP180;52211;50.154;8.682;2023-05-10T06:59:01;99490.00;;;19.50
65569;BMP180;52211;50.154;8.682;2023-05-10T07:01:29;99494.00;;;19.50
65569;BMP180;52211;50.154;8.682;2023-05-10T07:03:56;99500.00;;;19.60
65569;BMP180;52211;50.154;8.682;2023-05-10T07:06:23;99498.00;;;19.60
65569;BMP180;52211;50.154;8.682;2023-05-10T07:09:02;99498.00;;;19.60
65569;BMP180;52211;50.154;8.682;2023-05-10T07:11:31;99501.00;;;19.70
65569;BMP180;52211;50.154;8.682;2023-05-10T07:14:03;99508.00;;;19.70
65569;BMP180;52211;50.154;8.682;2023-05-10T07:16:33;99507.00;;;19.80
65569;BMP180;52211;50.154;8.682;2023-05-10T07:19:02;99509.00;;;19.80
65569;BMP180;52211;50.154;8.682;2023-05-10T07:21:31;99518.00;;;19.80
65569;BMP180;52211;50.154;8.682;2023-05-10T07:23:58;99514.00;;;19.80
65569;BMP180;52211;50.154;8.682;2023-05-10T07:26:26;99519.00;;;19.80
65569;BMP180;52211;50.154;8.682;2023-05-10T07:28:56;99519.00;;;19.80
65569;BMP180;52211;50.154;8.682;2023-05-10T07:31:25;99520.00;;;19.80
65569;BMP180;52211;50.154;8.682;2023-05-10T07:33:54;99521.00;;;19.90
65569;BMP180;52211;50.154;8.682;2023-05-10T07:36:21;99517.00;;;19.90
65569;BMP180;52211;50.154;8.682;2023-05-10T07:38:48;99522.00;;;19.90
65569;BMP180;52211;50.154;8.682;2023-05-10T07:41:18;99515.00;;;19.90
65569;BMP180;52211;50.154;8.682;2023-05-10T07:43:47;99524.00;;;19.90
65569;BMP180;52211;50.154;8.682;2023-05-10T07:46:16;99530.00;;;19.90
65569;BMP180;52211;50.154;8.682;2023-05-10T07:48:43;99534.00;;;19.90
65569;BMP180;52211;50.154;8.682;2023-05-10T07:51:14;99532.00;;;19.90
65569;BMP180;52211;50.154;8.682;2023-05-10T07:53:43;99535.00;;;19.90
65569;BMP180;52211;50.154;8.682;2023-05-10T07:56:26;99533.00;;;19.90
65569;BMP180;52211;50.154;8.682;2023-05-10T07:58:56;99535.00;;;20.00
65569;BMP180;52211;50.154;8.682;2023-05-10T08:01:23;99535.00;;;19.90
65569;BMP180;52211;50.154;8.682;2023-05-10T08:03:53;99539.00;;;20.00
65569;BMP180;52211;50.154;8.682;2023-05-10T08:06:25;99535.00;;;20.00
65569;BMP180;52211;50.154;8.682;2023-05-10T08:08:59;99532.00;;;20.00
65569;BMP180;52211;50.154;8.682;2023-05-10T08:11:26;99541.00;;;20.10
65569;BMP180;52211;50.154;8.682;2023-05-10T08:13:57;99533.00;;;20.10
65569;BMP180;52211;50.154;8.682;2023-05-10T08:16:26;99541.00;;;20.20
65569;BMP180;52211;50.154;8.682;2023-05-10T08:19:00;99543.00;;;20.20
65569;BMP180;52211;50.154;8.682;2023-05-10T08:21:29;99540.00;;;20.30
65569;BMP180;52211;50.154;8.682;2023-05-10T08:23:57;99546.00;;;20.30
65569;BMP180;52211;50.154;8.682;2023-05-10T08:26:24;99541.00;;;20.40
65569;BMP180;52211;50.154;8.682;2023-05-10T08:28:54;99549.00;;;20.40
65569;BMP180;52211;50.154;8.682;2023-05-10T08:31:25;99546.00;;;20.50
65569;BMP180;52211;50.154;8.682;2023-05-10T08:33:57;99545.00;;;20.50
65569;BMP180;52211;50.154;8.682;2023-05-10T08:36:24;99555.00;;;20.60
65569;BMP180;52211;50.154;8.682;2023-05-10T08:38:51;99551.00;;;20.70
65569;BMP180;52211;50.154;8.682;2023-05-10T08:41:24;99555.00;;;20.80
65569;BMP180;52211;50.154;8.682;2023-05-10T08:43:54;99557.00;;;20.80
65569;BMP180;52211;50.154;8.682;2023-05-10T08:46:22;99552.00;;;20.90
65569;BMP180;52211;50.154;8.682;2023-05-10T08:48:54;99555.00;;;20.90
65569;BMP180;52211;50.154;8.682;2023-05-10T08:51:24;99563.00;;;21.00
65569;BMP180;52211;50.154;8.682;2023-05-10T08:54:00;99556.00;;;21.00
65569;BMP180;52211;50.154;8.682;2023-05-10T08:56:27;99564.00;;;21.00
65569;BMP180;52211;50.154;8.682;2023-05-10T08:58:54;99566.00;;;21.00
65569;BMP180;52211;50.154;8.682;2023-05-10T09:01:25;99569.00;;;21.00
65569;BMP180;52211;50.154;8.682;2023-05-10T09:03:59;99563.00;;;21.00
65569;BMP180;52211;50.154;8.682;2023-05-10T09:06:29;99582.00;;;21.00
65569;BMP180;52211;50.154;8.682;2023-05-10T09:08:59;99588.00;;;21.00
65569;BMP180;52211;50.154;8.682;2023-05-10T09:11:27;99594.00;;;21.00
65569;BMP180;52211;50.154;8.682;2023-05-10T09:14:00;99591.00;;;20.90
65569;BMP180;52211;50.154;8.682;2023-05-10T09:16:30;99590.00;;;20.90
65569;BMP180;52211;50.154;8.682;2023-05-10T09:18:57;99590.00;;;20.90
65569;BMP180;52211;50.154;8.682;2023-05-10T09:21:29;99595.00;;;20.80
65569;BMP180;52211;50.154;8.682;2023-05-10T09:24:06;99594.00;;;20.80
65569;BMP180;52211;50.154;8.682;2023-05-10T09:26:49;99602.00;;;20.80
65569;BMP180;52211;50.154;8.682;2023-05-10T09:29:17;99596.00;;;20.90
65569;BMP180;52211;50.154;8.682;2023-05-10T09:31:52;99591.00;;;20.90
65569;BMP180;52211;50.154;8.682;2023-05-10T09:34:33;99598.00;;;20.90
65569;BMP180;52211;50.154;8.682;2023-05-10T09:37:02;99601.00;;;20.90
65569;BMP180;52211;50.154;8.682;2023-05-10T09:39:38;99598.00;;;20.80
65569;BMP180;52211;50.154;8.682;2023-05-10T09:42:09;99596.00;;;20.80
65569;BMP180;52211;50.154;8.682;2023-05-10T09:44:39;99601.00;;;20.80
65569;BMP180;52211;50.154;8.682;2023-05-10T09:47:17;99604.00;;;20.80
65569;BMP180;52211;50.154;8.682;2023-05-10T09:49:53;99602.00;;;20.80
65569;BMP180;52211;50.154;8.682;2023-05-10T09:52:51;99599.00;;;20.80
65569;BMP180;52211;50.154;8.682;2023-05-10T09:55:20;99600.00;;;20.90
65569;BMP180;52211;50.154;8.682;2023-05-10T09:58:02;99602.00;;;21.00
65569;BMP180;52211;50.154;8.682;2023-05-10T10:00:39;99602.00;;;21.10
65569;BMP180;52211;50.154;8.682;2023-05-10T10:03:15;99602.00;;;21.10
65569;BMP180;52211;50.154;8.682;2023-05-10T10:05:44;99605.00;;;21.20
65569;BMP180;52211;50.154;8.682;2023-05-10T10:08:12;99608.00;;;21.30
65569;BMP180;52211;50.154;8.682;2023-05-10T10:10:42;99605.00;;;21.40
65569;BMP180;52211;50.154;8.682;2023-05-10T10:13:11;99612.00;;;21.40
65569;BMP180;52211;50.154;8.682;2023-05-10T10:15:38;99611.00;;;21.50
65569;BMP180;52211;50.154;8.682;2023-05-10T10:18:06;99611.00;;;21.50
65569;BMP180;52211;50.154;8.682;2023-05-10T10:20:37;99609.00;;;21.60
65569;BMP180;52211;50.154;8.682;2023-05-10T10:23:08;99613.00;;;21.60
65569;BMP180;52211;50.154;8.682;2023-05-10T10:25:35;99620.00;;;21.60
65569;BMP180;52211;50.154;8.682;2023-05-10T10:28:31;99618.00;;;21.60
65569;BMP180;52211;50.154;8.682;2023-05-10T10:34:05;99615.00;;;21.60
65569;BMP180;52211;50.154;8.682;2023-05-10T10:36:46;99619.00;;;21.60
65569;BMP180;52211;50.154;8.682;2023-05-10T10:39:14;99617.00;;;21.60
65569;BMP180;52211;50.154;8.682;2023-05-10T10:41:56;99624.00;;;21.60
65569;BMP180;52211;50.154;8.682;2023-05-10T10:44:24;99619.00;;;21.60
65569;BMP180;52211;50.154;8.682;2023-05-10T10:50:04;99613.00;;;21.60
65569;BMP180;52211;50.154;8.682;2023-05-10T10:52:43;99621.00;;;21.50
65569;BMP180;52211;50.154;8.682;2023-05-10T10:57:53;99626.00;;;21.40
65569;BMP180;52211;50.154;8.682;2023-05-10T11:00:35;99627.00;;;21.30
65569;BMP180;52211;50.154;8.682;2023-05-10T11:08:26;99623.00;;;21.20
65569;BMP180;52211;50.154;8.682;2023-05-10T11:13:43;99625.00;;;21.10
65569;BMP180;52211;50.154;8.682;2023-05-10T11:16:20;99622.00;;;21.10
65569;BMP180;52211;50.154;8.682;2023-05-10T11:19:17;99630.00;;;21.00
65569;BMP180;52211;50.154;8.682;2023-05-10T11:22:12;99620.00;;;21.00
65569;BMP180;52211;50.154;8.682;2023-05-10T11:24:57;99630.00;;;21.10
65569;BMP180;52211;50.154;8.682;2023-05-10T11:27:25;99628.00;;;21.10
65569;BMP180;52211;50.154;8.682;2023-05-10T11:29:54;99627.00;;;21.20
65569;BMP180;52211;50.154;8.682;2023-05-10T11:32:24;99632.00;;;21.20
65569;BMP180;52211;50.154;8.682;2023-05-10T11:34:53;99627.00;;;21.30
65569;BMP180;52211;50.154;8.682;2023-05-10T11:37:22;99631.00;;;21.30
65569;BMP180;52211;50.154;8.682;2023-05-10T11:39:54;99625.00;;;21.30
65569;BMP180;52211;50.154;8.682;2023-05-10T11:42:21;99626.00;;;21.40
65569;BMP180;52211;50.154;8.682;2023-05-10T11:44:48;99627.00;;;21.50
65569;BMP180;52211;50.154;8.682;2023-05-10T11:47:23;99638.00;;;21.50
65569;BMP180;52211;50.154;8.682;2023-05-10T11:49:51;99636.00;;;21.60
65569;BMP180;52211;50.154;8.682;2023-05-10T11:52:19;99637.00;;;21.60
65569;BMP180;52211;50.154;8.682;2023-05-10T11:54:53;99643.00;;;21.60
65569;BMP180;52211;50.154;8.682;2023-05-10T11:57:27;99645.00;;;21.70
65569;BMP180;52211;50.154;8.682;2023-05-10T11:59:57;99642.00;;;21.70
65569;BMP180;52211;50.154;8.682;2023-05-10T12:02:26;99640.00;;;21.70
65569;BMP180;52211;50.154;8.682;2023-05-10T12:04:56;99645.00;;;21.80
65569;BMP180;52211;50.154;8.682;2023-05-10T12:07:27;99639.00;;;21.80
65569;BMP180;52211;50.154;8.682;2023-05-10T12:12:40;99644.00;;;21.90
65569;BMP180;52211;50.154;8.682;2023-05-10T12:15:23;99652.00;;;21.90
65569;BMP180;52211;50.154;8.682;2023-05-10T12:17:53;99645.00;;;21.90
65569;BMP180;52211;50.154;8.682;2023-05-10T12:20:27;99654.00;;;21.90
65569;BMP180;52211;50.154;8.682;2023-05-10T12:22:57;99648.00;;;21.90
65569;BMP180;52211;50.154;8.682;2023-05-10T12:25:34;99653.00;;;22.00
65569;BMP180;52211;50.154;8.682;2023-05-10T12:28:05;99647.00;;;22.00
65569;BMP180;52211;50.154;8.682;2023-05-10T12:30:36;99647.00;;;22.10
65569;BMP180;52211;50.154;8.682;2023-05-10T12:33:12;99646.00;;;22.20
65569;BMP180;52211;50.154;8.682;2023-05-10T12:35:50;99652.00;;;22.30
65569;BMP180;52211;50.154;8.682;2023-05-10T12:38:41;99648.00;;;22.40
65569;BMP180;52211;50.154;8.682;2023-05-10T12:41:15;99647.00;;;22.60
65569;BMP180;52211;50.154;8.682;2023-05-10T12:43:42;99646.00;;;22.70
65569;BMP180;52211;50.154;8.682;2023-05-10T12:46:13;99643.00;;;22.90
65569;BMP180;52211;50.154;8.682;2023-05-10T12:48:42;99641.00;;;23.20
65569;BMP180;52211;50.154;8.682;2023-05-10T12:51:17;99649.00;;;23.40
65569;BMP180;52211;50.154;8.682;2023-05-10T12:53:53;99657.00;;;23.60
65569;BMP180;52211;50.154;8.682;2023-05-10T12:56:24;99652.00;;;23.70
65569;BMP180;52211;50.154;8.682;2023-05-10T12:58:53;99648.00;;;23.80
65569;BMP180;52211;50.154;8.682;2023-05-10T13:01:23;99655.00;;;23.90
65569;BMP180;52211;50.154;8.682;2023-05-10T13:03:55;99655.00;;;24.00
65569;BMP180;52211;50.154;8.682;2023-05-10T13:06:24;99655.00;;;24.10
65569;BMP180;52211;50.154;8.682;2023-05-10T13:08:54;99652.00;;;24.20
65569;BMP180;52211;50.154;8.682;2023-05-10T13:11:21;99655.00;;;24.20
65569;BMP180;52211;50.154;8.682;2023-05-10T13:13:48;99653.00;;;24.20
65569;BMP180;52211;50.154;8.682;2023-05-10T13:16:17;99659.00;;;24.20
65569;BMP180;52211;50.154;8.682;2023-05-10T13:18:46;99655.00;;;24.20
65569;BMP180;52211;50.154;8.682;2023-05-10T13:21:18;99652.00;;;24.20
65569;BMP180;52211;50.154;8.682;2023-05-10T13:23:45;99662.00;;;24.20
65569;BMP180;52211;50.154;8.682;2023-05-10T13:26:13;99660.00;;;24.20
65569;BMP180;52211;50.154;8.682;2023-05-10T13:28:41;99659.00;;;24.20
65569;BMP180;52211;50.154;8.682;2023-05-10T13:31:12;99666.00;;;24.30
65569;BMP180;52211;50.154;8.682;2023-05-10T13:33:39;99662.00;;;24.30
65569;BMP180;52211;50.154;8.682;2023-05-10T13:36:06;99666.00;;;24.40
65569;BMP180;52211;50.154;8.682;2023-05-10T13:38:35;99665.00;;;24.40
65569;BMP180;52211;50.154;8.682;2023-05-10T13:41:07;99660.00;;;24.40
65569;BMP180;52211;50.154;8.682;2023-05-10T13:43:37;99662.00;;;24.40
65569;BMP180;52211;50.154;8.682;2023-05-10T13:46:03;99662.00;;;24.30
65569;BMP180;52211;50.154;8.682;2023-05-10T13:48:30;99660.00;;;24.30
65569;BMP180;52211;50.154;8.682;2023-05-10T13:51:00;99657.00;;;24.20
65569;BMP180;52211;50.154;8.682;2023-05-10T13:53:27;99654.00;;;24.20
65569;BMP180;52211;50.154;8.682;2023-05-10T13:55:56;99659.00;;;24.10
65569;BMP180;52211;50.154;8.682;2023-05-10T13:58:27;99661.00;;;24.10
65569;BMP180;52211;50.154;8.682;2023-05-10T14:00:57;99653.00;;;24.00
65569;BMP180;52211;50.154;8.682;2023-05-10T14:03:23;99663.00;;;24.00
65569;BMP180;52211;50.154;8.682;2023-05-10T14:05:51;99659.00;;;24.00
65569;BMP180;52211;50.154;8.682;2023-05-10T14:08:22;99657.00;;;24.00
65569;BMP180;52211;50.154;8.682;2023-05-10T14:10:49;99653.00;;;24.00
65569;BMP180;52211;50.154;8.682;2023-05-10T14:13:19;99639.00;;;24.00
65569;BMP180;52211;50.154;8.682;2023-05-10T14:15:48;99646.00;;;24.00
65569;BMP180;52211;50.154;8.682;2023-05-10T14:18:15;99662.00;;;24.10
65569;BMP180;52211;50.154;8.682;2023-05-10T14:20:45;99644.00;;;24.20
65569;BMP180;52211;50.154;8.682;2023-05-10T14:23:14;99645.00;;;24.30
65569;BMP180;52211;50.154;8.682;2023-05-10T14:25:41;99635.00;;;24.40
65569;BMP180;52211;50.154;8.682;2023-05-10T14:28:13;99642.00;;;24.40
65569;BMP180;52211;50.154;8.682;2023-05-10T14:30:42;99643.00;;;24.50
65569;BMP180;52211;50.154;8.682;2023-05-10T14:33:11;99647.00;;;24.60
65569;BMP180;52211;50.154;8.682;2023-05-10T14:35:44;99645.00;;;24.70
65569;BMP180;52211;50.154;8.682;2023-05-10T14:38:11;99641.00;;;24.80
65569;BMP180;52211;50.154;8.682;2023-05-10T14:40:41;99654.00;;;24.90
65569;BMP180;52211;50.154;8.682;2023-05-10T14:43:09;99640.00;;;24.90
65569;BMP180;52211;50.154;8.682;2023-05-10T14:45:40;99635.00;;;24.90
65569;BMP180;52211;50.154;8.682;2023-05-10T14:48:12;99649.00;;;24.80
65569;BMP180;52211;50.154;8.682;2023-05-10T14:50:42;99638.00;;;24.90
65569;BMP180;52211;50.154;8.682;2023-05-10T14:53:09;99636.00;;;24.90
65569;BMP180;52211;50.154;8.682;2023-05-10T14:55:39;99636.00;;;25.00
65569;BMP180;52211;50.154;8.682;2023-05-10T14:58:08;99643.00;;;25.00
65569;BMP180;52211;50.154;8.682;2023-05-10T15:00:35;99636.00;;;25.10
65569;BMP180;52211;50.154;8.682;2023-05-10T15:03:02;99628.00;;;25.10
65569;BMP180;52211;50.154;8.682;2023-05-10T15:05:33;99634.00;;;25.10